Tastyp, Russia
Current Conditions -  °F | °C
As of 8:00 PM on Tuesday 21 Oct 2014 (Local Time) from UNAA Reporting Station
Broken Clouds Broken Clouds  
Wind Chill: 28°   Ceiling: 20000
Heat Index: 37°   Visibility: 6mi
Dew Point: 25°   Wind: 16mph
Humidity: 60%   Direction: 230°SW
Pressure: 29.97"   Gusts: NA
Location:  52.8°N, 89.92°E
Report Text: UNAA 211300Z 23007MPS 9999 SCT030CB BKN200 03/M04 Q1015 TEMPO23010G15MPS RMK QFE739 20290040
Loading
Personal Weather Stations






























Interactive Weather Map
Tropical Storm Tracking
New forecast layout! Learn more

10-Day Weather Forecast

Advertisements
Track Severe Weather on mobile